Time;durP1;ratioP1;P1;durP2;ratioP2;P2;SDS_P1;SDS_P2;PMS_P1;PMS_P2;Temp;Humidity;BMP_temperature;BMP_pressure;BME280_temperature;BME280_humidity;BME280_pressure;Samples;Min_cycle;Max_cycle;Signal;HPM_P1;HPM_P2
2023/07/29 00:01:41;;;;;;;6.13;4.38;;;;;;;;;;4981237;28;20122;-80
2023/07/29 00:04:09;;;;;;;6.05;3.85;;;;;;;;;;4981140;28;20039;-79
2023/07/29 00:06:35;;;;;;;7.25;4.10;;;;;;;;;;4981545;28;20070;-79
2023/07/29 00:09:02;;;;;;;7.03;4.35;;;;;;;;;;4981749;28;20497;-79
2023/07/29 00:11:30;;;;;;;7.20;4.38;;;;;;;;;;4982680;28;20106;-79
2023/07/29 00:13:58;;;;;;;7.95;4.60;;;;;;;;;;4979204;28;20043;-79
2023/07/29 00:16:24;;;;;;;7.68;4.78;;;;;;;;;;4980611;28;20053;-79
2023/07/29 00:18:51;;;;;;;7.72;4.55;;;;;;;;;;4981857;28;20055;-79
2023/07/29 00:21:17;;;;;;;8.23;4.40;;;;;;;;;;4982206;28;20495;-79
2023/07/29 00:23:44;;;;;;;6.22;4.05;;;;;;;;;;4980318;28;20054;-79
2023/07/29 00:26:10;;;;;;;6.75;4.00;;;;;;;;;;4980513;28;20114;-78
2023/07/29 00:28:37;;;;;;;5.57;3.58;;;;;;;;;;4980997;28;20047;-79
2023/07/29 00:31:05;;;;;;;5.68;3.38;;;;;;;;;;4984494;28;20102;-79
2023/07/29 00:33:32;;;;;;;6.38;3.40;;;;;;;;;;4981583;28;20043;-79
2023/07/29 00:36:01;;;;;;;6.88;3.97;;;;;;;;;;4978020;28;20101;-79
2023/07/29 00:38:28;;;;;;;5.07;3.37;;;;;;;;;;4982092;28;20100;-79
2023/07/29 00:40:54;;;;;;;6.05;3.47;;;;;;;;;;4980700;28;20047;-79
2023/07/29 00:43:21;;;;;;;6.32;3.50;;;;;;;;;;4980613;28;20066;-79
2023/07/29 00:45:48;;;;;;;6.78;3.97;;;;;;;;;;4968489;28;20075;-79
2023/07/29 00:48:16;;;;;;;5.35;3.30;;;;;;;;;;4986666;28;20470;-78
2023/07/29 00:50:43;;;;;;;5.78;3.25;;;;;;;;;;4985316;28;20433;-79
2023/07/29 00:53:10;;;;;;;5.00;2.90;;;;;;;;;;4982610;28;20438;-79
2023/07/29 00:55:36;;;;;;;5.55;3.25;;;;;;;;;;4982147;28;20059;-79
2023/07/29 00:58:04;;;;;;;6.40;3.10;;;;;;;;;;4982821;28;20055;-79
2023/07/29 01:00:31;;;;;;;6.63;3.78;;;;;;;;;;4982025;28;20043;-79
2023/07/29 01:02:57;;;;;;;5.35;3.30;;;;;;;;;;4983048;28;20039;-79
2023/07/29 01:05:30;;;;;;;5.55;3.80;;;;;;;;;;4979496;28;20054;-79
2023/07/29 01:08:01;;;;;;;5.97;4.10;;;;;;;;;;4980249;28;20066;-79
2023/07/29 01:10:37;;;;;;;6.05;3.80;;;;;;;;;;4980161;28;20039;-79
2023/07/29 01:13:14;;;;;;;8.02;4.47;;;;;;;;;;4979835;28;20046;-79
2023/07/29 01:15:47;;;;;;;6.88;3.80;;;;;;;;;;4979410;28;20133;-79
2023/07/29 01:18:19;;;;;;;6.57;3.80;;;;;;;;;;4980641;28;20054;-79
2023/07/29 01:20:48;;;;;;;6.28;3.67;;;;;;;;;;4980899;28;20137;-79
2023/07/29 01:23:17;;;;;;;5.68;3.38;;;;;;;;;;4967761;28;20051;-79
2023/07/29 01:25:44;;;;;;;5.82;3.60;;;;;;;;;;4975258;28;20074;-80
2023/07/29 01:28:11;;;;;;;6.93;4.03;;;;;;;;;;4976544;28;20053;-78
2023/07/29 01:30:41;;;;;;;8.07;4.93;;;;;;;;;;4978179;28;20057;-79
2023/07/29 01:33:14;;;;;;;6.80;3.80;;;;;;;;;;4974486;28;20059;-78
2023/07/29 01:35:45;;;;;;;5.72;3.55;;;;;;;;;;4976602;28;20065;-78
2023/07/29 01:38:17;;;;;;;5.55;3.58;;;;;;;;;;4977674;28;20047;-78
2023/07/29 01:40:46;;;;;;;5.55;3.17;;;;;;;;;;4968720;28;20054;-78
2023/07/29 01:43:13;;;;;;;5.55;3.55;;;;;;;;;;4976008;28;20059;-78
2023/07/29 01:45:40;;;;;;;5.22;3.25;;;;;;;;;;4974419;28;20046;-78
2023/07/29 01:48:08;;;;;;;7.38;4.68;;;;;;;;;;4977498;28;20043;-79
2023/07/29 01:50:34;;;;;;;7.50;4.25;;;;;;;;;;4978453;28;20043;-79
2023/07/29 01:53:01;;;;;;;6.60;3.95;;;;;;;;;;4978343;28;20042;-79
2023/07/29 01:55:28;;;;;;;6.72;4.28;;;;;;;;;;4979048;28;20042;-78
2023/07/29 01:57:56;;;;;;;7.78;3.97;;;;;;;;;;4978761;28;20548;-79
2023/07/29 02:00:22;;;;;;;7.80;4.25;;;;;;;;;;4971411;28;20047;-79
2023/07/29 02:02:49;;;;;;;7.95;3.72;;;;;;;;;;4978176;28;20419;-79
2023/07/29 02:05:15;;;;;;;6.85;4.07;;;;;;;;;;4978479;28;20523;-78
2023/07/29 02:07:42;;;;;;;7.32;4.22;;;;;;;;;;4966718;28;20054;-78
2023/07/29 02:10:09;;;;;;;6.55;4.30;;;;;;;;;;4978131;28;20047;-79
2023/07/29 02:12:36;;;;;;;6.55;3.85;;;;;;;;;;4967875;28;20085;-78
2023/07/29 02:15:04;;;;;;;5.97;3.88;;;;;;;;;;4978690;28;20047;-78
2023/07/29 02:17:31;;;;;;;6.82;3.75;;;;;;;;;;4978675;28;20593;-79
2023/07/29 02:19:58;;;;;;;6.53;3.17;;;;;;;;;;4977611;28;20042;-78
2023/07/29 02:22:24;;;;;;;5.15;3.17;;;;;;;;;;4977617;28;20141;-79
2023/07/29 02:24:50;;;;;;;5.45;3.13;;;;;;;;;;4978634;28;20524;-78
2023/07/29 02:27:17;;;;;;;4.60;2.67;;;;;;;;;;4978392;28;20051;-79
2023/07/29 02:29:44;;;;;;;5.28;3.03;;;;;;;;;;4978231;28;20061;-78
2023/07/29 02:32:11;;;;;;;6.13;3.10;;;;;;;;;;4977124;28;20110;-79
2023/07/29 02:34:38;;;;;;;5.15;2.88;;;;;;;;;;4972950;28;20430;-78
2023/07/29 02:37:04;;;;;;;6.40;2.80;;;;;;;;;;4978004;28;20053;-79
2023/07/29 02:39:31;;;;;;;6.03;3.28;;;;;;;;;;4978038;28;20047;-79
2023/07/29 02:41:58;;;;;;;5.65;3.42;;;;;;;;;;4977219;28;20043;-79
2023/07/29 02:44:25;;;;;;;6.68;3.67;;;;;;;;;;4978098;28;20085;-78
2023/07/29 02:46:54;;;;;;;6.28;3.90;;;;;;;;;;4977390;28;20058;-79
2023/07/29 02:49:22;;;;;;;6.00;3.45;;;;;;;;;;4976154;28;20101;-78
2023/07/29 02:51:49;;;;;;;5.75;3.58;;;;;;;;;;4977778;28;20062;-78
2023/07/29 02:54:16;;;;;;;5.65;3.42;;;;;;;;;;4978459;28;20061;-79
2023/07/29 02:56:42;;;;;;;6.47;3.78;;;;;;;;;;4978563;28;20097;-78
2023/07/29 02:59:09;;;;;;;5.80;3.65;;;;;;;;;;4977941;28;20073;-79
2023/07/29 03:01:35;;;;;;;5.40;3.22;;;;;;;;;;4977305;28;20049;-79
2023/07/29 03:04:02;;;;;;;6.78;4.35;;;;;;;;;;4978019;28;20141;-79
2023/07/29 03:06:30;;;;;;;6.90;4.10;;;;;;;;;;4977552;28;20051;-78
2023/07/29 03:08:56;;;;;;;7.65;4.18;;;;;;;;;;4977846;28;20502;-78
2023/07/29 03:11:23;;;;;;;5.38;3.33;;;;;;;;;;4976362;28;20049;-78
2023/07/29 03:13:49;;;;;;;4.82;3.08;;;;;;;;;;4976445;28;20043;-78
2023/07/29 03:16:17;;;;;;;5.20;2.75;;;;;;;;;;4977276;28;20050;-78
2023/07/29 03:18:44;;;;;;;5.65;2.53;;;;;;;;;;4976284;28;20078;-79
2023/07/29 03:21:12;;;;;;;4.00;2.47;;;;;;;;;;4976287;28;20042;-78
2023/07/29 03:23:39;;;;;;;4.20;2.28;;;;;;;;;;4978863;28;20055;-78
2023/07/29 03:26:10;;;;;;;7.70;2.70;;;;;;;;;;4980357;28;20043;-78
2023/07/29 03:28:38;;;;;;;4.97;2.50;;;;;;;;;;4981311;28;20058;-78
2023/07/29 03:31:04;;;;;;;5.45;3.45;;;;;;;;;;4980865;28;20539;-78
2023/07/29 03:33:31;;;;;;;4.20;2.63;;;;;;;;;;4980682;28;20043;-78
2023/07/29 03:35:58;;;;;;;6.20;2.42;;;;;;;;;;4980346;28;21650;-78
2023/07/29 03:38:24;;;;;;;6.03;2.55;;;;;;;;;;4980814;28;20059;-78
2023/07/29 03:40:53;;;;;;;4.38;2.35;;;;;;;;;;4981887;28;20502;-78
2023/07/29 03:43:20;;;;;;;4.53;2.80;;;;;;;;;;4982313;28;20295;-78
2023/07/29 03:45:46;;;;;;;4.63;2.50;;;;;;;;;;4979308;28;20506;-78
2023/07/29 03:48:13;;;;;;;4.28;2.45;;;;;;;;;;4971009;28;20137;-78
2023/07/29 03:50:39;;;;;;;4.50;2.60;;;;;;;;;;4974297;28;20126;-79
2023/07/29 03:53:06;;;;;;;4.60;2.40;;;;;;;;;;4980429;28;20074;-79
2023/07/29 03:55:33;;;;;;;4.05;2.45;;;;;;;;;;4977552;28;20429;-78
2023/07/29 03:58:01;;;;;;;5.28;2.60;;;;;;;;;;4981883;28;20050;-79
2023/07/29 04:00:28;;;;;;;4.15;2.28;;;;;;;;;;4980128;28;20057;-78
2023/07/29 04:02:55;;;;;;;4.15;2.53;;;;;;;;;;4978819;28;20062;-78
2023/07/29 04:05:21;;;;;;;4.70;2.22;;;;;;;;;;4979389;28;20047;-79
2023/07/29 04:07:48;;;;;;;4.03;2.00;;;;;;;;;;4978334;28;20054;-79
2023/07/29 04:10:15;;;;;;;4.30;2.10;;;;;;;;;;4978330;28;20058;-78
2023/07/29 04:12:42;;;;;;;4.25;2.03;;;;;;;;;;4979201;28;20142;-78
2023/07/29 04:15:10;;;;;;;3.85;2.03;;;;;;;;;;4979405;28;20139;-79
2023/07/29 04:17:36;;;;;;;4.20;2.20;;;;;;;;;;4978910;28;20533;-79
2023/07/29 04:20:03;;;;;;;3.47;1.83;;;;;;;;;;4978880;28;20050;-79
2023/07/29 04:22:30;;;;;;;4.10;1.98;;;;;;;;;;4970861;28;20058;-78
2023/07/29 04:24:56;;;;;;;4.05;2.10;;;;;;;;;;4979096;28;20074;-79
2023/07/29 04:27:23;;;;;;;4.55;2.05;;;;;;;;;;4979530;28;20390;-79
2023/07/29 04:29:49;;;;;;;4.40;2.13;;;;;;;;;;4978782;28;20133;-78
2023/07/29 04:32:17;;;;;;;3.97;1.90;;;;;;;;;;4979564;28;20053;-79
2023/07/29 04:34:44;;;;;;;4.30;2.10;;;;;;;;;;4979273;28;20045;-79
2023/07/29 04:37:10;;;;;;;3.80;2.10;;;;;;;;;;4979999;28;20054;-79
2023/07/29 04:39:37;;;;;;;3.58;1.88;;;;;;;;;;4979679;28;20089;-79
2023/07/29 04:42:04;;;;;;;4.43;2.25;;;;;;;;;;4980042;28;20051;-79
2023/07/29 04:44:31;;;;;;;3.58;1.75;;;;;;;;;;4980264;28;20130;-79
2023/07/29 04:46:57;;;;;;;4.03;2.00;;;;;;;;;;4980206;28;20047;-79
2023/07/29 04:49:25;;;;;;;3.88;2.10;;;;;;;;;;4979501;28;20051;-79
2023/07/29 04:51:52;;;;;;;4.60;2.00;;;;;;;;;;4978876;28;20413;-79
2023/07/29 04:54:20;;;;;;;3.70;2.13;;;;;;;;;;4978126;28;20057;-78
2023/07/29 04:56:47;;;;;;;3.55;1.73;;;;;;;;;;4978016;28;20046;-78
2023/07/29 04:59:13;;;;;;;4.22;2.05;;;;;;;;;;4977993;28;20399;-79
2023/07/29 05:01:42;;;;;;;4.53;2.28;;;;;;;;;;4977363;28;20051;-78
2023/07/29 05:04:08;;;;;;;3.90;2.10;;;;;;;;;;4978594;28;20058;-79
2023/07/29 05:06:36;;;;;;;4.10;2.03;;;;;;;;;;4976756;28;20049;-78
2023/07/29 05:09:14;;;;;;;4.68;2.25;;;;;;;;;;4978222;28;20043;-78
2023/07/29 05:11:40;;;;;;;3.60;1.80;;;;;;;;;;5009871;23;20045;-78
2023/07/29 05:14:08;;;;;;;3.60;1.90;;;;;;;;;;5013625;28;20042;-80
2023/07/29 05:16:35;;;;;;;3.38;1.77;;;;;;;;;;5014260;28;20039;-78
2023/07/29 05:19:01;;;;;;;3.15;1.63;;;;;;;;;;5013023;28;20045;-77
2023/07/29 05:21:28;;;;;;;3.38;1.90;;;;;;;;;;5013666;28;20493;-77
2023/07/29 05:23:56;;;;;;;3.55;1.80;;;;;;;;;;5013693;28;20080;-77
2023/07/29 05:26:22;;;;;;;4.65;2.00;;;;;;;;;;5015695;28;20046;-78
2023/07/29 05:28:49;;;;;;;3.20;1.70;;;;;;;;;;5016335;28;20423;-78
2023/07/29 05:31:16;;;;;;;3.45;1.75;;;;;;;;;;5015240;28;20068;-79
2023/07/29 05:33:42;;;;;;;3.33;1.50;;;;;;;;;;5013907;28;20053;-80
2023/07/29 05:36:09;;;;;;;4.25;1.80;;;;;;;;;;5010450;28;20421;-78
2023/07/29 05:38:35;;;;;;;4.30;1.92;;;;;;;;;;5014433;28;20046;-78
2023/07/29 05:41:03;;;;;;;3.97;2.20;;;;;;;;;;5016100;28;20061;-79
2023/07/29 05:43:30;;;;;;;4.38;2.38;;;;;;;;;;5012232;28;20042;-78
2023/07/29 05:45:56;;;;;;;7.38;2.58;;;;;;;;;;5014620;28;20124;-77
2023/07/29 05:48:23;;;;;;;6.03;2.85;;;;;;;;;;5013885;28;20045;-78
2023/07/29 05:50:50;;;;;;;5.03;2.55;;;;;;;;;;5014131;28;20061;-78
2023/07/29 05:53:16;;;;;;;4.78;2.80;;;;;;;;;;5015617;28;20046;-79
2023/07/29 05:55:43;;;;;;;5.60;2.70;;;;;;;;;;5015240;28;20045;-78
2023/07/29 05:58:11;;;;;;;3.92;2.13;;;;;;;;;;5014315;28;20117;-78
2023/07/29 06:00:37;;;;;;;4.07;2.15;;;;;;;;;;5006085;28;20128;-78
2023/07/29 06:03:04;;;;;;;4.40;2.17;;;;;;;;;;5015697;28;20492;-77
2023/07/29 06:05:30;;;;;;;3.63;1.88;;;;;;;;;;5016061;28;20128;-79
2023/07/29 06:07:57;;;;;;;2.95;1.58;;;;;;;;;;5015008;28;20049;-78
2023/07/29 06:10:24;;;;;;;3.78;1.65;;;;;;;;;;5014337;28;20060;-79
2023/07/29 06:12:50;;;;;;;3.92;2.08;;;;;;;;;;5015483;28;20041;-79
2023/07/29 06:15:21;;;;;;;3.90;1.92;;;;;;;;;;5015046;28;20045;-79
2023/07/29 06:17:48;;;;;;;3.58;1.88;;;;;;;;;;5014716;28;20172;-78
2023/07/29 06:20:15;;;;;;;3.50;1.70;;;;;;;;;;5014268;28;20050;-78
2023/07/29 06:22:42;;;;;;;3.47;1.67;;;;;;;;;;5012290;28;20042;-77
2023/07/29 06:25:09;;;;;;;3.70;1.60;;;;;;;;;;5011870;28;20071;-77
2023/07/29 06:27:35;;;;;;;2.25;1.30;;;;;;;;;;5007873;28;20042;-78
2023/07/29 06:30:02;;;;;;;3.60;1.58;;;;;;;;;;5005350;28;20081;-78
2023/07/29 06:32:30;;;;;;;3.22;1.95;;;;;;;;;;5008850;28;20045;-78
2023/07/29 06:34:56;;;;;;;4.30;2.45;;;;;;;;;;5004766;28;20420;-77
2023/07/29 06:37:23;;;;;;;5.05;2.17;;;;;;;;;;5002192;28;20052;-77
2023/07/29 06:39:49;;;;;;;4.88;2.40;;;;;;;;;;5008729;28;20060;-78
2023/07/29 06:42:16;;;;;;;3.58;2.05;;;;;;;;;;5006900;28;20057;-78
2023/07/29 06:44:42;;;;;;;4.72;2.20;;;;;;;;;;5011650;28;20049;-78
2023/07/29 06:47:12;;;;;;;5.07;2.40;;;;;;;;;;5006285;28;20110;-79
2023/07/29 06:49:40;;;;;;;4.23;2.43;;;;;;;;;;5004229;28;20057;-78
2023/07/29 06:52:07;;;;;;;5.60;2.60;;;;;;;;;;5011945;28;20041;-78
2023/07/29 06:54:33;;;;;;;3.60;2.00;;;;;;;;;;5012827;28;20050;-78
2023/07/29 06:57:00;;;;;;;3.53;1.98;;;;;;;;;;5011836;28;20049;-78
2023/07/29 06:59:26;;;;;;;3.80;2.00;;;;;;;;;;5015934;28;20065;-78
2023/07/29 07:01:53;;;;;;;3.40;1.75;;;;;;;;;;5015919;28;20500;-77
2023/07/29 07:04:20;;;;;;;3.80;2.13;;;;;;;;;;5015100;28;20129;-77
2023/07/29 07:06:51;;;;;;;3.20;1.70;;;;;;;;;;5012454;28;20050;-82
2023/07/29 07:09:18;;;;;;;4.53;2.38;;;;;;;;;;5010496;28;20129;-82
2023/07/29 07:11:44;;;;;;;4.97;2.35;;;;;;;;;;5011748;28;20137;-83
2023/07/29 07:14:11;;;;;;;5.38;2.65;;;;;;;;;;5007954;28;20370;-76
2023/07/29 07:16:39;;;;;;;4.72;2.67;;;;;;;;;;5011654;28;20042;-78
2023/07/29 07:19:06;;;;;;;5.75;3.00;;;;;;;;;;5013492;28;20497;-78
2023/07/29 07:21:33;;;;;;;5.30;3.10;;;;;;;;;;5008157;28;20424;-78
2023/07/29 07:24:01;;;;;;;4.78;2.72;;;;;;;;;;5008996;28;20072;-78
2023/07/29 07:26:28;;;;;;;5.65;2.90;;;;;;;;;;5014003;28;20074;-79
2023/07/29 07:28:54;;;;;;;4.68;2.55;;;;;;;;;;5009476;28;20499;-78
2023/07/29 07:31:21;;;;;;;4.57;2.63;;;;;;;;;;5017289;28;20320;-77
2023/07/29 07:33:47;;;;;;;9.35;5.00;;;;;;;;;;5012669;28;20412;-84
2023/07/29 07:36:15;;;;;;;13.27;7.88;;;;;;;;;;5005083;28;20045;-76
2023/07/29 07:38:42;;;;;;;7.13;3.55;;;;;;;;;;5001675;28;20053;-77
2023/07/29 07:41:10;;;;;;;6.35;3.58;;;;;;;;;;5013680;28;20045;-77
2023/07/29 07:43:36;;;;;;;8.57;4.47;;;;;;;;;;5009747;28;20044;-76
2023/07/29 07:46:04;;;;;;;6.95;3.88;;;;;;;;;;5007802;28;20042;-75
2023/07/29 07:48:32;;;;;;;5.68;2.80;;;;;;;;;;5005620;28;20049;-77
2023/07/29 07:50:59;;;;;;;5.70;2.67;;;;;;;;;;5004501;28;20058;-76
2023/07/29 07:53:26;;;;;;;11.90;4.38;;;;;;;;;;5003557;28;20122;-77
2023/07/29 07:55:53;;;;;;;5.60;2.67;;;;;;;;;;5007026;28;20050;-77
2023/07/29 07:58:21;;;;;;;5.28;2.70;;;;;;;;;;5002738;28;20048;-77
2023/07/29 08:00:47;;;;;;;4.60;2.63;;;;;;;;;;5007416;28;20076;-78
2023/07/29 08:03:14;;;;;;;4.70;2.50;;;;;;;;;;5006763;28;20647;-77
2023/07/29 08:05:40;;;;;;;5.35;2.80;;;;;;;;;;5001813;28;20516;-75
2023/07/29 08:08:08;;;;;;;4.10;2.80;;;;;;;;;;5006767;28;20050;-76
2023/07/29 08:10:35;;;;;;;5.30;3.00;;;;;;;;;;5006650;28;20619;-76
2023/07/29 08:13:02;;;;;;;5.47;2.70;;;;;;;;;;5010506;28;20069;-76
2023/07/29 08:15:30;;;;;;;5.15;2.60;;;;;;;;;;5013569;28;20050;-76
2023/07/29 08:17:57;;;;;;;4.15;2.63;;;;;;;;;;5010204;28;20052;-78
2023/07/29 08:20:23;;;;;;;4.75;2.70;;;;;;;;;;5013121;28;20555;-76
2023/07/29 08:22:50;;;;;;;5.35;2.92;;;;;;;;;;5001559;28;20053;-77
2023/07/29 08:25:17;;;;;;;5.18;2.83;;;;;;;;;;5010911;28;20057;-82
2023/07/29 08:27:46;;;;;;;5.00;2.63;;;;;;;;;;5002843;28;20141;-75
2023/07/29 08:30:14;;;;;;;5.32;2.95;;;;;;;;;;5000502;28;20042;-77
2023/07/29 08:32:44;;;;;;;5.50;2.90;;;;;;;;;;5005731;28;20108;-75
2023/07/29 08:35:11;;;;;;;4.32;2.72;;;;;;;;;;5013259;28;20061;-76
2023/07/29 08:37:37;;;;;;;5.50;3.28;;;;;;;;;;5013616;28;20557;-77
2023/07/29 08:40:06;;;;;;;5.18;3.00;;;;;;;;;;5013270;28;20049;-77
2023/07/29 08:42:34;;;;;;;3.92;2.38;;;;;;;;;;5009849;28;20806;-76
2023/07/29 08:45:07;;;;;;;5.22;2.67;;;;;;;;;;5013652;28;20053;-75
2023/07/29 08:47:34;;;;;;;4.68;3.08;;;;;;;;;;5014353;28;20496;-76
2023/07/29 08:50:07;;;;;;;5.40;3.17;;;;;;;;;;5000905;28;20050;-76
2023/07/29 08:52:35;;;;;;;7.95;3.75;;;;;;;;;;5006949;28;20048;-81
2023/07/29 08:55:02;;;;;;;4.68;3.20;;;;;;;;;;4999264;28;20088;-76
2023/07/29 08:57:30;;;;;;;4.93;2.97;;;;;;;;;;5005060;28;20050;-77
2023/07/29 08:59:58;;;;;;;5.55;3.20;;;;;;;;;;5003509;28;20548;-77
2023/07/29 09:02:25;;;;;;;5.57;3.83;;;;;;;;;;4993251;28;20505;-76
2023/07/29 09:04:52;;;;;;;5.95;3.40;;;;;;;;;;5013017;28;20045;-76
2023/07/29 09:07:20;;;;;;;6.03;3.42;;;;;;;;;;5015109;28;20145;-77
2023/07/29 09:09:47;;;;;;;7.25;3.53;;;;;;;;;;5013667;28;20046;-77
2023/07/29 09:12:14;;;;;;;6.88;3.47;;;;;;;;;;5012534;28;20136;-77
2023/07/29 09:14:40;;;;;;;4.90;2.72;;;;;;;;;;5013084;28;20057;-77
2023/07/29 09:17:09;;;;;;;4.63;2.90;;;;;;;;;;5012810;28;20042;-77
2023/07/29 09:19:36;;;;;;;5.38;3.30;;;;;;;;;;5012054;28;20046;-77
2023/07/29 09:22:02;;;;;;;4.80;2.90;;;;;;;;;;5011463;28;20053;-77
2023/07/29 09:24:32;;;;;;;4.57;2.78;;;;;;;;;;5013264;28;20042;-76
2023/07/29 09:26:59;;;;;;;5.10;2.80;;;;;;;;;;5012824;28;20548;-77
2023/07/29 09:29:32;;;;;;;4.95;3.30;;;;;;;;;;5012528;28;20042;-76
2023/07/29 09:32:23;;;;;;;5.15;3.10;;;;;;;;;;5012561;28;20046;-76
2023/07/29 09:34:49;;;;;;;5.18;2.90;;;;;;;;;;4992929;28;20193;-77
2023/07/29 09:37:17;;;;;;;4.65;2.80;;;;;;;;;;4993149;28;20046;-76
2023/07/29 09:39:49;;;;;;;5.78;2.88;;;;;;;;;;4992860;28;20523;-77
2023/07/29 09:42:21;;;;;;;5.68;3.00;;;;;;;;;;4993543;28;20050;-77
2023/07/29 09:44:50;;;;;;;4.50;2.75;;;;;;;;;;4993154;28;20386;-77
2023/07/29 09:47:22;;;;;;;5.50;3.40;;;;;;;;;;4992710;28;20133;-76
2023/07/29 09:49:49;;;;;;;4.80;3.60;;;;;;;;;;4998037;28;20057;-76
2023/07/29 09:52:16;;;;;;;5.25;3.38;;;;;;;;;;5012466;28;20072;-78
2023/07/29 09:54:43;;;;;;;4.97;3.33;;;;;;;;;;5012240;28;20072;-76
2023/07/29 09:57:12;;;;;;;5.47;3.70;;;;;;;;;;5011906;28;20475;-76
2023/07/29 09:59:38;;;;;;;5.53;3.67;;;;;;;;;;5011845;28;20253;-78
2023/07/29 10:02:05;;;;;;;5.43;3.40;;;;;;;;;;5012001;28;20057;-77
2023/07/29 10:04:33;;;;;;;6.47;3.00;;;;;;;;;;5012212;28;20533;-77
2023/07/29 10:07:01;;;;;;;4.78;3.28;;;;;;;;;;5012398;28;20038;-77
2023/07/29 10:09:29;;;;;;;4.40;2.95;;;;;;;;;;5012048;28;20134;-77
2023/07/29 10:11:57;;;;;;;5.10;2.90;;;;;;;;;;5011707;28;20085;-77
2023/07/29 10:14:28;;;;;;;5.13;2.90;;;;;;;;;;5006296;28;20129;-77
2023/07/29 10:16:56;;;;;;;5.10;3.08;;;;;;;;;;5006735;28;20045;-80
2023/07/29 10:19:23;;;;;;;4.60;2.97;;;;;;;;;;5008465;28;20046;-77
2023/07/29 10:21:50;;;;;;;4.78;2.70;;;;;;;;;;5009393;28;20532;-76
2023/07/29 10:24:22;;;;;;;4.55;2.67;;;;;;;;;;5010479;28;20112;-76
2023/07/29 10:26:50;;;;;;;4.70;3.08;;;;;;;;;;5006598;28;20493;-75
2023/07/29 10:29:21;;;;;;;4.97;2.97;;;;;;;;;;5006634;28;20046;-76
2023/07/29 10:31:51;;;;;;;4.85;3.13;;;;;;;;;;5009979;28;20046;-76
2023/07/29 10:34:18;;;;;;;4.72;2.80;;;;;;;;;;5011902;28;20124;-76
2023/07/29 10:36:46;;;;;;;4.13;2.65;;;;;;;;;;5009682;28;20141;-76
2023/07/29 10:39:13;;;;;;;5.18;3.08;;;;;;;;;;5015262;28;20046;-77
2023/07/29 10:41:56;;;;;;;4.00;2.60;;;;;;;;;;5005492;28;20052;-76
2023/07/29 10:44:51;;;;;;;4.20;2.67;;;;;;;;;;5012552;28;20050;-77
2023/07/29 10:47:21;;;;;;;3.50;2.35;;;;;;;;;;5006610;28;20057;-76
2023/07/29 10:49:50;;;;;;;4.70;2.70;;;;;;;;;;5014729;28;20050;-76
2023/07/29 10:52:29;;;;;;;5.65;3.10;;;;;;;;;;5014965;28;20046;-76
2023/07/29 10:54:58;;;;;;;4.97;3.07;;;;;;;;;;5014513;28;20129;-76
2023/07/29 10:57:32;;;;;;;4.38;2.78;;;;;;;;;;5007958;28;20460;-76
2023/07/29 10:59:59;;;;;;;5.22;2.83;;;;;;;;;;5007589;28;20081;-77
2023/07/29 11:02:32;;;;;;;5.22;3.17;;;;;;;;;;5015211;28;20049;-77
2023/07/29 11:04:59;;;;;;;5.75;3.10;;;;;;;;;;5015418;28;20052;-76
2023/07/29 11:07:27;;;;;;;4.78;3.08;;;;;;;;;;5013444;28;20042;-77
2023/07/29 11:09:59;;;;;;;5.00;3.33;;;;;;;;;;5014673;28;20133;-76
2023/07/29 11:12:36;;;;;;;4.78;2.28;;;;;;;;;;5008546;28;20132;-76
2023/07/29 11:15:05;;;;;;;2.58;1.30;;;;;;;;;;5015652;28;20050;-76
2023/07/29 11:17:35;;;;;;;3.20;1.83;;;;;;;;;;5008362;28;20130;-76
2023/07/29 11:20:03;;;;;;;2.90;1.48;;;;;;;;;;5009216;28;20545;-76
2023/07/29 11:22:30;;;;;;;3.05;1.85;;;;;;;;;;5006601;28;20050;-76
2023/07/29 11:24:59;;;;;;;3.70;1.83;;;;;;;;;;5010397;28;20456;-77
2023/07/29 11:27:26;;;;;;;4.40;1.93;;;;;;;;;;5011673;28;20054;-76
2023/07/29 11:32:22;;;;;;;2.97;1.50;;;;;;;;;;5006990;28;20042;-80
2023/07/29 11:34:50;;;;;;;3.42;1.75;;;;;;;;;;5004784;28;20412;-81
2023/07/29 11:37:18;;;;;;;3.85;2.08;;;;;;;;;;4989096;28;20054;-80
2023/07/29 11:39:45;;;;;;;4.75;2.33;;;;;;;;;;5000111;28;20453;-78
2023/07/29 11:42:12;;;;;;;3.58;2.30;;;;;;;;;;4996063;28;20042;-80
2023/07/29 11:44:39;;;;;;;4.07;2.20;;;;;;;;;;4994037;28;20051;-80
2023/07/29 11:47:07;;;;;;;3.35;1.88;;;;;;;;;;4992548;28;20490;-79
2023/07/29 11:49:34;;;;;;;3.53;2.20;;;;;;;;;;4998150;28;20053;-81
2023/07/29 11:52:03;;;;;;;3.28;2.25;;;;;;;;;;4999871;28;20042;-82
2023/07/29 11:54:30;;;;;;;3.55;1.90;;;;;;;;;;4991645;28;20157;-81
2023/07/29 11:56:57;;;;;;;3.42;2.13;;;;;;;;;;5000297;28;20133;-82
2023/07/29 11:59:24;;;;;;;3.25;2.05;;;;;;;;;;5000893;28;20050;-81
2023/07/29 12:01:50;;;;;;;3.70;2.00;;;;;;;;;;4991534;28;20042;-81
2023/07/29 12:04:17;;;;;;;4.93;2.50;;;;;;;;;;5010426;28;20049;-81
2023/07/29 12:06:44;;;;;;;4.40;2.17;;;;;;;;;;5000356;28;20057;-80
2023/07/29 12:09:13;;;;;;;3.60;2.10;;;;;;;;;;4994422;28;20432;-81
2023/07/29 12:11:40;;;;;;;4.38;2.25;;;;;;;;;;4999056;28;20137;-81
2023/07/29 12:14:08;;;;;;;5.03;2.05;;;;;;;;;;5000223;28;20046;-81
2023/07/29 12:16:41;;;;;;;4.15;2.92;;;;;;;;;;5003282;28;20033;-80
2023/07/29 12:19:08;;;;;;;3.95;2.28;;;;;;;;;;5003300;28;20070;-81
2023/07/29 12:21:34;;;;;;;4.22;2.28;;;;;;;;;;4999839;28;20053;-81
2023/07/29 12:24:03;;;;;;;3.90;2.47;;;;;;;;;;4990952;28;20046;-80
2023/07/29 12:26:31;;;;;;;3.47;2.20;;;;;;;;;;5000578;28;20407;-79
2023/07/29 12:28:57;;;;;;;4.53;2.83;;;;;;;;;;5002429;28;20453;-81
2023/07/29 12:31:32;;;;;;;4.40;2.22;;;;;;;;;;4999488;28;20234;-79
2023/07/29 12:33:58;;;;;;;4.78;2.50;;;;;;;;;;4999697;28;20504;-81
2023/07/29 12:36:40;;;;;;;4.10;2.72;;;;;;;;;;4988764;28;20400;-80
2023/07/29 12:39:07;;;;;;;4.10;2.70;;;;;;;;;;4980537;28;20058;-81
2023/07/29 12:41:35;;;;;;;4.30;2.55;;;;;;;;;;4979729;28;20135;-78
2023/07/29 12:44:01;;;;;;;4.18;2.67;;;;;;;;;;4991200;28;20039;-81
2023/07/29 12:46:30;;;;;;;5.97;3.15;;;;;;;;;;4999524;28;20058;-81
2023/07/29 12:48:57;;;;;;;5.75;3.00;;;;;;;;;;4999636;28;20051;-80
2023/07/29 12:51:23;;;;;;;4.93;3.20;;;;;;;;;;4991653;28;20058;-81
2023/07/29 12:53:50;;;;;;;7.35;4.22;;;;;;;;;;4982022;28;20049;-80
2023/07/29 12:56:16;;;;;;;7.25;3.80;;;;;;;;;;4987880;28;20051;-80
2023/07/29 12:58:44;;;;;;;5.35;2.47;;;;;;;;;;4999231;28;20046;-80
2023/07/29 13:01:13;;;;;;;5.03;2.20;;;;;;;;;;5009335;28;20052;-79
2023/07/29 13:03:39;;;;;;;6.82;2.50;;;;;;;;;;5015732;28;20591;-80
2023/07/29 13:06:06;;;;;;;4.75;2.30;;;;;;;;;;4997805;28;20054;-84
2023/07/29 13:08:34;;;;;;;4.28;2.30;;;;;;;;;;4989311;28;20058;-79
2023/07/29 13:11:01;;;;;;;4.32;2.22;;;;;;;;;;4991201;28;20050;-80
2023/07/29 13:13:27;;;;;;;4.40;2.25;;;;;;;;;;4988787;28;20145;-80
2023/07/29 13:15:55;;;;;;;4.32;2.05;;;;;;;;;;5001119;28;20141;-81
2023/07/29 13:18:22;;;;;;;5.15;2.58;;;;;;;;;;5009496;28;21346;-83
2023/07/29 13:20:49;;;;;;;4.78;2.92;;;;;;;;;;4999495;28;20101;-83
2023/07/29 13:23:16;;;;;;;5.10;3.08;;;;;;;;;;5001198;28;20050;-80
2023/07/29 13:25:43;;;;;;;7.65;4.15;;;;;;;;;;4991969;28;20054;-78
2023/07/29 13:28:09;;;;;;;7.10;3.50;;;;;;;;;;4993725;28;20103;-80
2023/07/29 13:30:36;;;;;;;6.00;3.30;;;;;;;;;;5003079;28;20483;-80
2023/07/29 13:33:04;;;;;;;8.98;5.82;;;;;;;;;;5005944;28;20050;-79
2023/07/29 13:35:31;;;;;;;8.70;5.57;;;;;;;;;;4993393;28;20046;-79
2023/07/29 13:37:58;;;;;;;9.05;5.45;;;;;;;;;;5001187;28;20038;-80
2023/07/29 13:40:24;;;;;;;8.15;5.55;;;;;;;;;;4994120;28;20042;-81
2023/07/29 13:42:51;;;;;;;7.05;5.72;;;;;;;;;;4992408;28;20050;-80
2023/07/29 13:45:24;;;;;;;5.68;4.38;;;;;;;;;;4993491;28;20132;-83
2023/07/29 13:47:51;;;;;;;10.55;4.70;;;;;;;;;;4996887;28;20070;-80
2023/07/29 13:50:19;;;;;;;7.75;4.15;;;;;;;;;;4996010;28;20500;-79
2023/07/29 13:52:46;;;;;;;7.25;4.45;;;;;;;;;;4996377;28;20054;-79
2023/07/29 13:55:12;;;;;;;6.35;4.38;;;;;;;;;;4992036;28;20046;-79
2023/07/29 13:57:39;;;;;;;5.18;3.30;;;;;;;;;;4993487;28;20066;-78
2023/07/29 14:00:08;;;;;;;5.20;3.47;;;;;;;;;;4988278;28;20046;-79
2023/07/29 14:02:34;;;;;;;5.72;3.30;;;;;;;;;;4983741;28;20108;-79
2023/07/29 14:05:01;;;;;;;5.95;3.40;;;;;;;;;;5002743;28;20053;-78
2023/07/29 14:07:28;;;;;;;6.82;4.07;;;;;;;;;;5002198;28;20576;-79
2023/07/29 14:09:55;;;;;;;5.45;3.45;;;;;;;;;;4991871;28;20512;-79
2023/07/29 14:12:21;;;;;;;5.90;3.75;;;;;;;;;;4990416;28;20051;-79
2023/07/29 14:14:48;;;;;;;5.97;3.72;;;;;;;;;;4997008;28;20052;-79
2023/07/29 14:17:15;;;;;;;5.95;3.72;;;;;;;;;;4995569;28;21204;-79
2023/07/29 14:19:41;;;;;;;4.97;3.13;;;;;;;;;;4996041;28;20068;-77
2023/07/29 14:22:08;;;;;;;6.30;3.67;;;;;;;;;;4998012;28;20055;-79
2023/07/29 14:24:36;;;;;;;5.55;3.53;;;;;;;;;;4988145;28;20046;-77
2023/07/29 14:27:02;;;;;;;5.85;3.25;;;;;;;;;;4996113;28;20045;-79
2023/07/29 14:29:29;;;;;;;5.10;3.08;;;;;;;;;;4994257;28;20042;-78
2023/07/29 14:31:56;;;;;;;5.88;3.40;;;;;;;;;;4988287;28;20053;-78
2023/07/29 14:34:22;;;;;;;5.63;3.15;;;;;;;;;;4992399;28;20049;-78
2023/07/29 14:36:49;;;;;;;5.10;3.38;;;;;;;;;;4990739;28;20046;-77
2023/07/29 14:39:15;;;;;;;6.07;4.18;;;;;;;;;;4997150;28;20464;-78
2023/07/29 14:41:43;;;;;;;5.95;3.88;;;;;;;;;;4988832;28;20096;-78
2023/07/29 14:44:10;;;;;;;6.93;4.07;;;;;;;;;;5006947;28;20140;-77
2023/07/29 14:46:36;;;;;;;6.72;4.13;;;;;;;;;;4988654;28;20050;-78
2023/07/29 14:49:03;;;;;;;6.22;3.70;;;;;;;;;;4989514;28;20046;-78